sensor_id;sensor_type;location;lat;lon;timestamp;P1;durP1;ratioP1;P2;durP2;ratioP2
47167;SDS011;32931;47.778;17.806;2023-05-07T00:01:24;12.43;;;10.10;;
47167;SDS011;32931;47.778;17.806;2023-05-07T00:03:50;14.35;;;10.27;;
47167;SDS011;32931;47.778;17.806;2023-05-07T00:06:16;18.45;;;10.15;;
47167;SDS011;32931;47.778;17.806;2023-05-07T00:08:42;15.48;;;9.70;;
47167;SDS011;32931;47.778;17.806;2023-05-07T00:11:08;15.73;;;10.52;;
47167;SDS011;32931;47.778;17.806;2023-05-07T00:13:35;12.55;;;10.45;;
47167;SDS011;32931;47.778;17.806;2023-05-07T00:16:01;14.35;;;9.65;;
47167;SDS011;32931;47.778;17.806;2023-05-07T00:18:28;13.70;;;10.40;;
47167;SDS011;32931;47.778;17.806;2023-05-07T00:20:54;13.88;;;10.60;;
47167;SDS011;32931;47.778;17.806;2023-05-07T00:23:22;17.20;;;10.70;;
47167;SDS011;32931;47.778;17.806;2023-05-07T00:25:48;16.77;;;10.65;;
47167;SDS011;32931;47.778;17.806;2023-05-07T00:28:14;14.40;;;10.13;;
47167;SDS011;32931;47.778;17.806;2023-05-07T00:30:40;12.77;;;10.93;;
47167;SDS011;32931;47.778;17.806;2023-05-07T00:33:07;21.50;;;11.13;;
47167;SDS011;32931;47.778;17.806;2023-05-07T00:35:33;12.43;;;10.27;;
47167;SDS011;32931;47.778;17.806;2023-05-07T00:37:59;15.80;;;11.07;;
47167;SDS011;32931;47.778;17.806;2023-05-07T00:40:25;14.90;;;11.80;;
47167;SDS011;32931;47.778;17.806;2023-05-07T00:42:51;12.82;;;11.00;;
47167;SDS011;32931;47.778;17.806;2023-05-07T00:45:27;12.60;;;11.30;;
47167;SDS011;32931;47.778;17.806;2023-05-07T00:47:57;14.23;;;10.73;;
47167;SDS011;32931;47.778;17.806;2023-05-07T00:50:26;17.02;;;11.48;;
47167;SDS011;32931;47.778;17.806;2023-05-07T00:52:53;14.82;;;11.38;;
47167;SDS011;32931;47.778;17.806;2023-05-07T00:55:19;19.30;;;11.20;;
47167;SDS011;32931;47.778;17.806;2023-05-07T00:57:46;14.52;;;11.07;;
47167;SDS011;32931;47.778;17.806;2023-05-07T01:00:12;14.95;;;11.75;;
47167;SDS011;32931;47.778;17.806;2023-05-07T01:02:40;13.88;;;12.07;;
47167;SDS011;32931;47.778;17.806;2023-05-07T01:05:16;14.75;;;11.07;;
47167;SDS011;32931;47.778;17.806;2023-05-07T01:07:43;16.65;;;11.85;;
47167;SDS011;32931;47.778;17.806;2023-05-07T01:10:10;15.45;;;12.45;;
47167;SDS011;32931;47.778;17.806;2023-05-07T01:12:37;18.48;;;11.82;;
47167;SDS011;32931;47.778;17.806;2023-05-07T01:15:06;14.32;;;12.45;;
47167;SDS011;32931;47.778;17.806;2023-05-07T01:17:35;15.93;;;12.27;;
47167;SDS011;32931;47.778;17.806;2023-05-07T01:20:02;16.00;;;12.80;;
47167;SDS011;32931;47.778;17.806;2023-05-07T01:22:34;16.48;;;12.25;;
47167;SDS011;32931;47.778;17.806;2023-05-07T01:25:04;20.13;;;11.40;;
47167;SDS011;32931;47.778;17.806;2023-05-07T01:27:32;13.63;;;11.13;;
47167;SDS011;32931;47.778;17.806;2023-05-07T01:30:00;13.90;;;11.10;;
47167;SDS011;32931;47.778;17.806;2023-05-07T01:34:55;15.18;;;10.77;;
47167;SDS011;32931;47.778;17.806;2023-05-07T01:37:23;14.35;;;10.23;;
47167;SDS011;32931;47.778;17.806;2023-05-07T01:39:50;12.98;;;11.52;;
47167;SDS011;32931;47.778;17.806;2023-05-07T01:42:16;12.70;;;11.30;;
47167;SDS011;32931;47.778;17.806;2023-05-07T01:44:42;15.77;;;12.32;;
47167;SDS011;32931;47.778;17.806;2023-05-07T01:47:09;13.93;;;12.13;;
47167;SDS011;32931;47.778;17.806;2023-05-07T01:49:35;20.40;;;12.38;;
47167;SDS011;32931;47.778;17.806;2023-05-07T01:52:02;15.43;;;12.00;;
47167;SDS011;32931;47.778;17.806;2023-05-07T01:54:28;14.82;;;10.95;;
47167;SDS011;32931;47.778;17.806;2023-05-07T01:56:55;16.00;;;11.15;;
47167;SDS011;32931;47.778;17.806;2023-05-07T01:59:22;12.73;;;11.35;;
47167;SDS011;32931;47.778;17.806;2023-05-07T02:01:48;12.18;;;10.90;;
47167;SDS011;32931;47.778;17.806;2023-05-07T02:04:14;15.73;;;11.00;;
47167;SDS011;32931;47.778;17.806;2023-05-07T02:06:40;12.20;;;10.85;;
47167;SDS011;32931;47.778;17.806;2023-05-07T02:09:06;14.75;;;11.40;;
47167;SDS011;32931;47.778;17.806;2023-05-07T02:11:34;12.60;;;10.25;;
47167;SDS011;32931;47.778;17.806;2023-05-07T02:14:00;17.75;;;11.30;;
47167;SDS011;32931;47.778;17.806;2023-05-07T02:16:26;12.70;;;10.35;;
47167;SDS011;32931;47.778;17.806;2023-05-07T02:18:52;13.43;;;9.95;;
47167;SDS011;32931;47.778;17.806;2023-05-07T02:21:19;13.73;;;10.25;;
47167;SDS011;32931;47.778;17.806;2023-05-07T02:23:45;12.45;;;10.00;;
47167;SDS011;32931;47.778;17.806;2023-05-07T02:26:11;14.45;;;10.73;;
47167;SDS011;32931;47.778;17.806;2023-05-07T02:28:37;11.85;;;10.65;;
47167;SDS011;32931;47.778;17.806;2023-05-07T02:31:03;14.02;;;10.27;;
47167;SDS011;32931;47.778;17.806;2023-05-07T02:33:30;14.55;;;10.95;;
47167;SDS011;32931;47.778;17.806;2023-05-07T02:35:56;13.30;;;11.45;;
47167;SDS011;32931;47.778;17.806;2023-05-07T02:38:22;10.65;;;9.35;;
47167;SDS011;32931;47.778;17.806;2023-05-07T02:40:48;10.45;;;9.30;;
47167;SDS011;32931;47.778;17.806;2023-05-07T02:43:15;10.63;;;9.40;;
47167;SDS011;32931;47.778;17.806;2023-05-07T02:45:41;12.23;;;10.48;;
47167;SDS011;32931;47.778;17.806;2023-05-07T02:48:08;13.07;;;10.27;;
47167;SDS011;32931;47.778;17.806;2023-05-07T02:50:34;11.18;;;9.45;;
47167;SDS011;32931;47.778;17.806;2023-05-07T02:53:01;14.25;;;9.20;;
47167;SDS011;32931;47.778;17.806;2023-05-07T02:55:27;13.45;;;9.23;;
47167;SDS011;32931;47.778;17.806;2023-05-07T02:57:53;9.85;;;5.18;;
47167;SDS011;32931;47.778;17.806;2023-05-07T03:00:20;5.78;;;4.47;;
47167;SDS011;32931;47.778;17.806;2023-05-07T03:02:46;6.75;;;5.80;;
47167;SDS011;32931;47.778;17.806;2023-05-07T03:05:13;5.88;;;5.30;;
47167;SDS011;32931;47.778;17.806;2023-05-07T03:07:39;8.88;;;6.65;;
47167;SDS011;32931;47.778;17.806;2023-05-07T03:10:09;11.00;;;6.80;;
47167;SDS011;32931;47.778;17.806;2023-05-07T03:12:35;10.50;;;7.53;;
47167;SDS011;32931;47.778;17.806;2023-05-07T03:15:01;9.30;;;7.25;;
47167;SDS011;32931;47.778;17.806;2023-05-07T03:17:28;12.18;;;7.80;;
47167;SDS011;32931;47.778;17.806;2023-05-07T03:19:54;23.38;;;10.77;;
47167;SDS011;32931;47.778;17.806;2023-05-07T03:22:20;9.80;;;8.25;;
47167;SDS011;32931;47.778;17.806;2023-05-07T03:24:46;68.75;;;6.45;;
47167;SDS011;32931;47.778;17.806;2023-05-07T03:27:12;58.00;;;5.53;;
47167;SDS011;32931;47.778;17.806;2023-05-07T03:29:39;69.75;;;7.25;;
47167;SDS011;32931;47.778;17.806;2023-05-07T03:32:05;49.72;;;8.73;;
47167;SDS011;32931;47.778;17.806;2023-05-07T03:34:31;16.13;;;7.57;;
47167;SDS011;32931;47.778;17.806;2023-05-07T03:36:58;11.35;;;7.68;;
47167;SDS011;32931;47.778;17.806;2023-05-07T03:39:24;14.43;;;8.35;;
47167;SDS011;32931;47.778;17.806;2023-05-07T03:41:50;12.65;;;8.45;;
47167;SDS011;32931;47.778;17.806;2023-05-07T03:44:16;9.25;;;7.18;;
47167;SDS011;32931;47.778;17.806;2023-05-07T03:46:42;16.83;;;7.80;;
47167;SDS011;32931;47.778;17.806;2023-05-07T03:49:08;27.08;;;7.72;;
47167;SDS011;32931;47.778;17.806;2023-05-07T03:51:35;49.80;;;7.70;;
47167;SDS011;32931;47.778;17.806;2023-05-07T03:54:01;36.45;;;8.88;;
47167;SDS011;32931;47.778;17.806;2023-05-07T03:56:27;72.63;;;10.48;;
47167;SDS011;32931;47.778;17.806;2023-05-07T03:58:53;95.25;;;10.35;;
47167;SDS011;32931;47.778;17.806;2023-05-07T04:01:20;15.90;;;7.90;;
47167;SDS011;32931;47.778;17.806;2023-05-07T04:03:46;13.32;;;6.93;;
47167;SDS011;32931;47.778;17.806;2023-05-07T04:06:12;96.55;;;7.18;;
47167;SDS011;32931;47.778;17.806;2023-05-07T04:08:38;37.33;;;7.60;;
47167;SDS011;32931;47.778;17.806;2023-05-07T04:11:04;54.33;;;8.60;;
47167;SDS011;32931;47.778;17.806;2023-05-07T04:13:31;179.27;;;8.45;;
47167;SDS011;32931;47.778;17.806;2023-05-07T04:15:57;93.82;;;8.13;;
47167;SDS011;32931;47.778;17.806;2023-05-07T04:18:23;94.35;;;6.57;;
47167;SDS011;32931;47.778;17.806;2023-05-07T04:20:50;39.30;;;4.85;;
47167;SDS011;32931;47.778;17.806;2023-05-07T04:23:16;36.13;;;4.32;;
47167;SDS011;32931;47.778;17.806;2023-05-07T04:25:42;44.97;;;5.20;;
47167;SDS011;32931;47.778;17.806;2023-05-07T04:28:08;61.00;;;6.50;;
47167;SDS011;32931;47.778;17.806;2023-05-07T04:30:34;124.57;;;7.20;;
47167;SDS011;32931;47.778;17.806;2023-05-07T04:33:00;277.80;;;8.35;;
47167;SDS011;32931;47.778;17.806;2023-05-07T04:35:27;348.30;;;11.15;;
47167;SDS011;32931;47.778;17.806;2023-05-07T04:37:53;275.15;;;9.77;;
47167;SDS011;32931;47.778;17.806;2023-05-07T04:40:19;229.30;;;10.05;;
47167;SDS011;32931;47.778;17.806;2023-05-07T04:42:45;301.38;;;11.07;;
47167;SDS011;32931;47.778;17.806;2023-05-07T04:45:12;251.63;;;9.57;;
47167;SDS011;32931;47.778;17.806;2023-05-07T04:47:38;224.73;;;9.70;;
47167;SDS011;32931;47.778;17.806;2023-05-07T04:50:05;167.23;;;9.02;;
47167;SDS011;32931;47.778;17.806;2023-05-07T04:52:32;169.32;;;7.35;;
47167;SDS011;32931;47.778;17.806;2023-05-07T04:55:01;107.35;;;7.15;;
47167;SDS011;32931;47.778;17.806;2023-05-07T04:57:27;109.78;;;7.07;;
47167;SDS011;32931;47.778;17.806;2023-05-07T04:59:54;95.18;;;7.45;;
47167;SDS011;32931;47.778;17.806;2023-05-07T05:02:20;68.80;;;6.22;;
47167;SDS011;32931;47.778;17.806;2023-05-07T05:04:46;59.00;;;6.22;;
47167;SDS011;32931;47.778;17.806;2023-05-07T05:07:12;90.90;;;7.63;;
47167;SDS011;32931;47.778;17.806;2023-05-07T05:09:38;110.25;;;7.85;;
47167;SDS011;32931;47.778;17.806;2023-05-07T05:12:05;92.22;;;7.28;;
47167;SDS011;32931;47.778;17.806;2023-05-07T05:14:32;90.93;;;9.18;;
47167;SDS011;32931;47.778;17.806;2023-05-07T05:16:58;81.57;;;10.50;;
47167;SDS011;32931;47.778;17.806;2023-05-07T05:19:25;81.50;;;12.07;;
47167;SDS011;32931;47.778;17.806;2023-05-07T05:21:51;74.47;;;12.88;;
47167;SDS011;32931;47.778;17.806;2023-05-07T05:24:17;41.63;;;13.55;;
47167;SDS011;32931;47.778;17.806;2023-05-07T05:26:43;30.75;;;16.20;;
47167;SDS011;32931;47.778;17.806;2023-05-07T05:29:09;18.33;;;14.88;;
47167;SDS011;32931;47.778;17.806;2023-05-07T05:31:36;23.45;;;13.60;;
47167;SDS011;32931;47.778;17.806;2023-05-07T05:34:02;14.25;;;12.52;;
47167;SDS011;32931;47.778;17.806;2023-05-07T05:36:29;14.43;;;12.43;;
47167;SDS011;32931;47.778;17.806;2023-05-07T05:38:56;21.10;;;12.88;;
47167;SDS011;32931;47.778;17.806;2023-05-07T05:41:22;18.58;;;12.55;;
47167;SDS011;32931;47.778;17.806;2023-05-07T05:43:48;13.75;;;11.85;;
47167;SDS011;32931;47.778;17.806;2023-05-07T05:46:15;14.43;;;12.55;;
47167;SDS011;32931;47.778;17.806;2023-05-07T05:48:41;19.17;;;14.30;;
47167;SDS011;32931;47.778;17.806;2023-05-07T05:51:07;16.98;;;14.30;;
47167;SDS011;32931;47.778;17.806;2023-05-07T05:53:33;16.50;;;13.93;;
47167;SDS011;32931;47.778;17.806;2023-05-07T05:55:59;13.45;;;11.85;;
47167;SDS011;32931;47.778;17.806;2023-05-07T05:58:26;15.23;;;13.63;;
47167;SDS011;32931;47.778;17.806;2023-05-07T06:00:52;15.40;;;13.88;;
47167;SDS011;32931;47.778;17.806;2023-05-07T06:03:18;15.52;;;13.93;;
47167;SDS011;32931;47.778;17.806;2023-05-07T06:05:45;16.88;;;15.07;;
47167;SDS011;32931;47.778;17.806;2023-05-07T06:08:11;16.08;;;14.35;;
47167;SDS011;32931;47.778;17.806;2023-05-07T06:10:38;15.07;;;12.93;;
47167;SDS011;32931;47.778;17.806;2023-05-07T06:13:05;12.98;;;11.60;;
47167;SDS011;32931;47.778;17.806;2023-05-07T06:15:31;12.88;;;11.57;;
47167;SDS011;32931;47.778;17.806;2023-05-07T06:17:57;12.57;;;11.27;;
47167;SDS011;32931;47.778;17.806;2023-05-07T06:20:23;12.98;;;11.57;;
47167;SDS011;32931;47.778;17.806;2023-05-07T06:22:50;12.50;;;11.30;;
47167;SDS011;32931;47.778;17.806;2023-05-07T06:25:16;12.60;;;11.30;;
47167;SDS011;32931;47.778;17.806;2023-05-07T06:27:42;12.48;;;11.20;;
47167;SDS011;32931;47.778;17.806;2023-05-07T06:30:08;14.75;;;12.30;;
47167;SDS011;32931;47.778;17.806;2023-05-07T06:32:35;14.30;;;11.45;;
47167;SDS011;32931;47.778;17.806;2023-05-07T06:35:02;13.48;;;12.05;;
47167;SDS011;32931;47.778;17.806;2023-05-07T06:37:28;15.57;;;11.30;;
47167;SDS011;32931;47.778;17.806;2023-05-07T06:39:54;12.20;;;11.00;;
47167;SDS011;32931;47.778;17.806;2023-05-07T06:42:21;13.50;;;11.65;;
47167;SDS011;32931;47.778;17.806;2023-05-07T06:44:47;12.75;;;11.45;;
47167;SDS011;32931;47.778;17.806;2023-05-07T06:47:13;13.52;;;12.25;;
47167;SDS011;32931;47.778;17.806;2023-05-07T06:49:39;14.40;;;11.30;;
47167;SDS011;32931;47.778;17.806;2023-05-07T06:52:05;13.02;;;11.05;;
47167;SDS011;32931;47.778;17.806;2023-05-07T06:54:31;14.10;;;10.65;;
47167;SDS011;32931;47.778;17.806;2023-05-07T06:56:57;11.50;;;10.30;;
47167;SDS011;32931;47.778;17.806;2023-05-07T06:59:24;12.38;;;10.90;;
47167;SDS011;32931;47.778;17.806;2023-05-07T07:01:50;13.98;;;10.52;;
47167;SDS011;32931;47.778;17.806;2023-05-07T07:04:16;10.75;;;9.38;;
47167;SDS011;32931;47.778;17.806;2023-05-07T07:06:42;14.73;;;9.55;;
47167;SDS011;32931;47.778;17.806;2023-05-07T07:09:09;14.75;;;9.93;;
47167;SDS011;32931;47.778;17.806;2023-05-07T07:11:35;11.45;;;9.50;;
47167;SDS011;32931;47.778;17.806;2023-05-07T07:14:01;13.85;;;9.95;;
47167;SDS011;32931;47.778;17.806;2023-05-07T07:16:27;14.05;;;10.18;;
47167;SDS011;32931;47.778;17.806;2023-05-07T07:18:53;12.23;;;9.85;;
47167;SDS011;32931;47.778;17.806;2023-05-07T07:21:19;11.55;;;10.25;;
47167;SDS011;32931;47.778;17.806;2023-05-07T07:23:46;12.43;;;10.20;;
47167;SDS011;32931;47.778;17.806;2023-05-07T07:26:12;14.85;;;10.25;;
47167;SDS011;32931;47.778;17.806;2023-05-07T07:28:44;11.80;;;9.65;;
47167;SDS011;32931;47.778;17.806;2023-05-07T07:33:37;13.57;;;9.00;;
47167;SDS011;32931;47.778;17.806;2023-05-07T07:36:05;12.18;;;9.27;;
47167;SDS011;32931;47.778;17.806;2023-05-07T07:38:32;14.75;;;9.38;;
47167;SDS011;32931;47.778;17.806;2023-05-07T07:40:58;12.45;;;9.90;;
47167;SDS011;32931;47.778;17.806;2023-05-07T07:43:25;14.32;;;9.48;;
47167;SDS011;32931;47.778;17.806;2023-05-07T07:45:51;13.40;;;9.43;;
47167;SDS011;32931;47.778;17.806;2023-05-07T07:48:17;10.25;;;9.23;;
47167;SDS011;32931;47.778;17.806;2023-05-07T07:50:43;11.73;;;9.52;;
47167;SDS011;32931;47.778;17.806;2023-05-07T07:53:10;14.35;;;9.60;;
47167;SDS011;32931;47.778;17.806;2023-05-07T07:55:39;12.35;;;10.07;;
47167;SDS011;32931;47.778;17.806;2023-05-07T07:58:05;13.52;;;10.25;;
47167;SDS011;32931;47.778;17.806;2023-05-07T08:00:32;14.10;;;10.57;;
47167;SDS011;32931;47.778;17.806;2023-05-07T08:02:58;14.25;;;10.18;;
47167;SDS011;32931;47.778;17.806;2023-05-07T08:05:24;13.18;;;11.02;;
47167;SDS011;32931;47.778;17.806;2023-05-07T08:07:50;15.70;;;11.68;;
47167;SDS011;32931;47.778;17.806;2023-05-07T08:10:18;16.27;;;11.05;;
47167;SDS011;32931;47.778;17.806;2023-05-07T08:12:49;11.82;;;10.15;;
47167;SDS011;32931;47.778;17.806;2023-05-07T08:15:16;17.17;;;9.38;;
47167;SDS011;32931;47.778;17.806;2023-05-07T08:17:43;13.90;;;9.38;;
47167;SDS011;32931;47.778;17.806;2023-05-07T08:20:09;11.40;;;10.10;;
47167;SDS011;32931;47.778;17.806;2023-05-07T08:22:36;12.88;;;9.88;;
47167;SDS011;32931;47.778;17.806;2023-05-07T08:25:02;11.45;;;9.93;;
47167;SDS011;32931;47.778;17.806;2023-05-07T08:27:28;13.30;;;9.82;;
47167;SDS011;32931;47.778;17.806;2023-05-07T08:29:55;14.35;;;9.10;;
47167;SDS011;32931;47.778;17.806;2023-05-07T08:32:21;14.32;;;9.18;;
47167;SDS011;32931;47.778;17.806;2023-05-07T08:34:47;10.90;;;9.73;;
47167;SDS011;32931;47.778;17.806;2023-05-07T08:37:14;15.30;;;9.75;;
47167;SDS011;32931;47.778;17.806;2023-05-07T08:39:40;10.88;;;8.77;;
47167;SDS011;32931;47.778;17.806;2023-05-07T08:42:06;11.63;;;9.10;;
47167;SDS011;32931;47.778;17.806;2023-05-07T08:44:34;9.18;;;8.00;;
47167;SDS011;32931;47.778;17.806;2023-05-07T08:47:01;8.68;;;7.82;;
47167;SDS011;32931;47.778;17.806;2023-05-07T08:49:28;10.32;;;8.13;;
47167;SDS011;32931;47.778;17.806;2023-05-07T08:51:54;9.52;;;8.52;;
47167;SDS011;32931;47.778;17.806;2023-05-07T08:54:21;10.68;;;7.63;;
47167;SDS011;32931;47.778;17.806;2023-05-07T08:56:47;11.88;;;8.15;;
47167;SDS011;32931;47.778;17.806;2023-05-07T08:59:14;12.10;;;9.25;;
47167;SDS011;32931;47.778;17.806;2023-05-07T09:01:40;10.90;;;9.73;;
47167;SDS011;32931;47.778;17.806;2023-05-07T09:04:06;13.45;;;10.30;;
47167;SDS011;32931;47.778;17.806;2023-05-07T09:06:33;12.88;;;10.68;;
47167;SDS011;32931;47.778;17.806;2023-05-07T09:09:00;11.63;;;10.30;;
47167;SDS011;32931;47.778;17.806;2023-05-07T09:11:26;12.60;;;9.73;;
47167;SDS011;32931;47.778;17.806;2023-05-07T09:13:56;16.02;;;10.57;;
47167;SDS011;32931;47.778;17.806;2023-05-07T09:16:25;16.15;;;11.55;;
47167;SDS011;32931;47.778;17.806;2023-05-07T09:18:52;13.45;;;9.98;;
47167;SDS011;32931;47.778;17.806;2023-05-07T09:21:20;11.77;;;9.00;;
47167;SDS011;32931;47.778;17.806;2023-05-07T09:23:50;12.55;;;9.50;;
47167;SDS011;32931;47.778;17.806;2023-05-07T09:26:16;10.55;;;8.60;;
47167;SDS011;32931;47.778;17.806;2023-05-07T09:28:43;13.27;;;9.00;;
47167;SDS011;32931;47.778;17.806;2023-05-07T09:31:11;9.85;;;7.65;;
47167;SDS011;32931;47.778;17.806;2023-05-07T09:33:38;10.35;;;8.40;;
47167;SDS011;32931;47.778;17.806;2023-05-07T09:36:05;15.93;;;8.45;;
47167;SDS011;32931;47.778;17.806;2023-05-07T09:38:33;9.68;;;8.07;;
47167;SDS011;32931;47.778;17.806;2023-05-07T09:41:07;8.02;;;6.80;;
47167;SDS011;32931;47.778;17.806;2023-05-07T09:43:37;8.70;;;7.18;;
47167;SDS011;32931;47.778;17.806;2023-05-07T09:46:10;9.52;;;7.47;;
47167;SDS011;32931;47.778;17.806;2023-05-07T09:48:38;10.48;;;7.90;;
47167;SDS011;32931;47.778;17.806;2023-05-07T09:51:08;13.60;;;8.45;;
47167;SDS011;32931;47.778;17.806;2023-05-07T09:53:57;10.98;;;8.70;;
47167;SDS011;32931;47.778;17.806;2023-05-07T09:56:26;15.18;;;9.40;;
47167;SDS011;32931;47.778;17.806;2023-05-07T09:58:53;10.85;;;8.75;;
47167;SDS011;32931;47.778;17.806;2023-05-07T10:01:21;11.77;;;10.18;;
47167;SDS011;32931;47.778;17.806;2023-05-07T10:03:50;12.07;;;9.90;;
47167;SDS011;32931;47.778;17.806;2023-05-07T10:06:17;11.32;;;8.02;;
47167;SDS011;32931;47.778;17.806;2023-05-07T10:08:46;8.57;;;5.45;;
47167;SDS011;32931;47.778;17.806;2023-05-07T10:11:13;8.02;;;6.68;;
47167;SDS011;32931;47.778;17.806;2023-05-07T10:13:41;8.27;;;6.30;;
47167;SDS011;32931;47.778;17.806;2023-05-07T10:16:08;10.45;;;7.40;;
47167;SDS011;32931;47.778;17.806;2023-05-07T10:18:34;11.43;;;8.63;;
47167;SDS011;32931;47.778;17.806;2023-05-07T10:21:19;14.68;;;10.45;;
47167;SDS011;32931;47.778;17.806;2023-05-07T10:23:49;11.63;;;9.00;;
47167;SDS011;32931;47.778;17.806;2023-05-07T10:26:20;9.20;;;7.40;;
47167;SDS011;32931;47.778;17.806;2023-05-07T10:28:49;12.05;;;6.90;;
47167;SDS011;32931;47.778;17.806;2023-05-07T10:34:21;8.05;;;6.55;;
47167;SDS011;32931;47.778;17.806;2023-05-07T10:36:51;16.97;;;7.13;;
47167;SDS011;32931;47.778;17.806;2023-05-07T10:39:19;11.77;;;9.40;;
47167;SDS011;32931;47.778;17.806;2023-05-07T10:41:47;12.50;;;9.55;;
47167;SDS011;32931;47.778;17.806;2023-05-07T10:44:29;13.90;;;9.02;;
47167;SDS011;32931;47.778;17.806;2023-05-07T10:47:13;10.73;;;7.95;;
47167;SDS011;32931;47.778;17.806;2023-05-07T10:52:17;8.48;;;6.30;;
47167;SDS011;32931;47.778;17.806;2023-05-07T10:54:45;9.07;;;5.72;;
47167;SDS011;32931;47.778;17.806;2023-05-07T10:59:56;9.25;;;6.00;;
47167;SDS011;32931;47.778;17.806;2023-05-07T11:02:22;9.38;;;5.80;;
47167;SDS011;32931;47.778;17.806;2023-05-07T11:05:22;10.88;;;5.03;;
47167;SDS011;32931;47.778;17.806;2023-05-07T11:07:44;7.70;;;4.45;;
47167;SDS011;32931;47.778;17.806;2023-05-07T11:10:20;7.65;;;5.72;;
47167;SDS011;32931;47.778;17.806;2023-05-07T11:15:14;7.85;;;5.88;;
47167;SDS011;32931;47.778;17.806;2023-05-07T11:17:57;10.23;;;6.38;;
47167;SDS011;32931;47.778;17.806;2023-05-07T11:24:02;4.83;;;4.20;;
47167;SDS011;32931;47.778;17.806;2023-05-07T11:26:07;10.20;;;5.50;;
47167;SDS011;32931;47.778;17.806;2023-05-07T11:28:37;6.13;;;5.20;;
47167;SDS011;32931;47.778;17.806;2023-05-07T11:31:05;7.00;;;4.90;;
47167;SDS011;32931;47.778;17.806;2023-05-07T11:33:31;7.68;;;4.90;;
47167;SDS011;32931;47.778;17.806;2023-05-07T11:35:59;9.55;;;5.18;;
47167;SDS011;32931;47.778;17.806;2023-05-07T11:38:26;17.67;;;5.38;;
47167;SDS011;32931;47.778;17.806;2023-05-07T11:40:57;8.18;;;5.05;;
47167;SDS011;32931;47.778;17.806;2023-05-07T11:43:26;8.15;;;5.70;;
47167;SDS011;32931;47.778;17.806;2023-05-07T11:45:52;8.85;;;5.40;;
47167;SDS011;32931;47.778;17.806;2023-05-07T11:48:19;8.00;;;5.90;;
47167;SDS011;32931;47.778;17.806;2023-05-07T11:50:50;7.97;;;6.35;;
47167;SDS011;32931;47.778;17.806;2023-05-07T11:53:18;7.18;;;6.13;;
47167;SDS011;32931;47.778;17.806;2023-05-07T11:55:45;7.35;;;5.30;;
47167;SDS011;32931;47.778;17.806;2023-05-07T11:58:12;7.47;;;5.88;;
47167;SDS011;32931;47.778;17.806;2023-05-07T12:00:52;10.27;;;6.22;;
47167;SDS011;32931;47.778;17.806;2023-05-07T12:03:19;9.63;;;6.72;;
47167;SDS011;32931;47.778;17.806;2023-05-07T12:05:46;14.02;;;6.45;;
47167;SDS011;32931;47.778;17.806;2023-05-07T12:08:16;8.82;;;7.22;;
47167;SDS011;32931;47.778;17.806;2023-05-07T12:10:44;8.65;;;7.00;;
47167;SDS011;32931;47.778;17.806;2023-05-07T12:13:20;11.02;;;6.95;;
47167;SDS011;32931;47.778;17.806;2023-05-07T12:15:55;17.52;;;7.07;;
47167;SDS011;32931;47.778;17.806;2023-05-07T12:18:22;13.50;;;6.30;;
47167;SDS011;32931;47.778;17.806;2023-05-07T12:20:49;7.70;;;6.75;;
47167;SDS011;32931;47.778;17.806;2023-05-07T12:23:16;7.18;;;6.00;;
47167;SDS011;32931;47.778;17.806;2023-05-07T12:25:43;8.57;;;6.32;;
47167;SDS011;32931;47.778;17.806;2023-05-07T12:28:13;10.27;;;5.68;;
47167;SDS011;32931;47.778;17.806;2023-05-07T12:30:41;11.43;;;5.97;;
47167;SDS011;32931;47.778;17.806;2023-05-07T12:33:08;9.10;;;6.28;;
47167;SDS011;32931;47.778;17.806;2023-05-07T12:35:41;8.38;;;6.00;;
47167;SDS011;32931;47.778;17.806;2023-05-07T12:38:13;6.65;;;5.07;;
47167;SDS011;32931;47.778;17.806;2023-05-07T12:40:41;9.93;;;5.43;;
47167;SDS011;32931;47.778;17.806;2023-05-07T12:43:23;9.35;;;5.30;;
47167;SDS011;32931;47.778;17.806;2023-05-07T12:45:51;12.05;;;5.68;;
47167;SDS011;32931;47.778;17.806;2023-05-07T12:48:19;9.75;;;5.65;;
47167;SDS011;32931;47.778;17.806;2023-05-07T12:50:50;9.73;;;5.55;;
47167;SDS011;32931;47.778;17.806;2023-05-07T12:53:19;7.05;;;5.35;;
47167;SDS011;32931;47.778;17.806;2023-05-07T12:55:50;10.02;;;5.88;;
47167;SDS011;32931;47.778;17.806;2023-05-07T12:58:24;10.25;;;5.30;;
47167;SDS011;32931;47.778;17.806;2023-05-07T13:00:52;7.10;;;5.82;;
47167;SDS011;32931;47.778;17.806;2023-05-07T13:03:29;8.88;;;5.28;;
47167;SDS011;32931;47.778;17.806;2023-05-07T13:06:09;7.32;;;5.00;;
47167;SDS011;32931;47.778;17.806;2023-05-07T13:08:38;7.40;;;5.28;;
47167;SDS011;32931;47.778;17.806;2023-05-07T13:11:09;5.45;;;4.60;;
47167;SDS011;32931;47.778;17.806;2023-05-07T13:13:36;5.57;;;4.25;;
47167;SDS011;32931;47.778;17.806;2023-05-07T13:16:04;5.57;;;4.25;;
47167;SDS011;32931;47.778;17.806;2023-05-07T13:18:32;5.13;;;4.45;;
47167;SDS011;32931;47.778;17.806;2023-05-07T13:20:59;6.43;;;4.80;;
47167;SDS011;32931;47.778;17.806;2023-05-07T13:23:26;8.95;;;5.10;;
47167;SDS011;32931;47.778;17.806;2023-05-07T13:25:53;9.48;;;5.13;;
47167;SDS011;32931;47.778;17.806;2023-05-07T13:28:21;7.45;;;4.90;;
47167;SDS011;32931;47.778;17.806;2023-05-07T13:30:48;6.05;;;4.20;;
47167;SDS011;32931;47.778;17.806;2023-05-07T13:33:14;7.13;;;4.60;;
47167;SDS011;32931;47.778;17.806;2023-05-07T13:35:41;5.88;;;3.58;;
47167;SDS011;32931;47.778;17.806;2023-05-07T13:38:07;6.65;;;3.95;;
47167;SDS011;32931;47.778;17.806;2023-05-07T13:40:33;6.45;;;3.45;;
47167;SDS011;32931;47.778;17.806;2023-05-07T13:43:00;5.10;;;3.30;;
47167;SDS011;32931;47.778;17.806;2023-05-07T13:45:30;6.38;;;3.88;;
47167;SDS011;32931;47.778;17.806;2023-05-07T13:47:56;5.63;;;3.10;;
47167;SDS011;32931;47.778;17.806;2023-05-07T13:50:23;5.45;;;3.30;;
47167;SDS011;32931;47.778;17.806;2023-05-07T13:52:50;5.00;;;2.80;;
47167;SDS011;32931;47.778;17.806;2023-05-07T13:55:17;5.55;;;3.05;;
47167;SDS011;32931;47.778;17.806;2023-05-07T13:57:43;8.13;;;2.72;;
47167;SDS011;32931;47.778;17.806;2023-05-07T14:00:10;4.25;;;2.85;;
47167;SDS011;32931;47.778;17.806;2023-05-07T14:02:37;4.53;;;2.95;;
47167;SDS011;32931;47.778;17.806;2023-05-07T14:05:03;5.85;;;2.55;;
47167;SDS011;32931;47.778;17.806;2023-05-07T14:07:30;4.85;;;2.60;;
47167;SDS011;32931;47.778;17.806;2023-05-07T14:09:56;10.48;;;2.60;;
47167;SDS011;32931;47.778;17.806;2023-05-07T14:12:23;3.85;;;2.78;;
47167;SDS011;32931;47.778;17.806;2023-05-07T14:14:49;5.10;;;2.40;;
47167;SDS011;32931;47.778;17.806;2023-05-07T14:17:16;7.40;;;2.90;;
47167;SDS011;32931;47.778;17.806;2023-05-07T14:19:43;3.97;;;2.10;;
47167;SDS011;32931;47.778;17.806;2023-05-07T14:22:09;4.65;;;2.20;;
47167;SDS011;32931;47.778;17.806;2023-05-07T14:24:36;5.53;;;2.10;;
47167;SDS011;32931;47.778;17.806;2023-05-07T14:27:02;7.13;;;2.03;;
47167;SDS011;32931;47.778;17.806;2023-05-07T14:29:28;10.98;;;2.25;;
47167;SDS011;32931;47.778;17.806;2023-05-07T14:31:54;5.57;;;1.90;;
47167;SDS011;32931;47.778;17.806;2023-05-07T14:34:20;5.55;;;2.03;;
47167;SDS011;32931;47.778;17.806;2023-05-07T14:36:46;3.10;;;1.92;;
47167;SDS011;32931;47.778;17.806;2023-05-07T14:39:13;2.72;;;1.83;;